Airport View

Enter AWOS ICAO identifier for current METAR.

ex. KFNL

KLUF 251258Z AUTO 01003KT 10SM CLR 24/06 A2984 RMK AO2 SLP090 T02400063 $

25 Sep 2020 13:39

Phone: 623-856-4361

Other Area AWOS: KGEU - KGYR - KBXK - KDVT

TAF KLUF 251200Z 2512/2618 VRB06KT 9999 SKC QNH2979INS TEMPO 2521/2602 22010G15KT TX41/2523Z TN22/2513Z